createdAt,value
2023-03-16T00:00:55.912Z,21.17
2023-03-16T00:03:23.471Z,20.65
2023-03-16T00:05:54.166Z,20.27
2023-03-16T00:08:21.571Z,18.77
2023-03-16T00:10:49.372Z,22.33
2023-03-16T00:13:23.972Z,23.85
2023-03-16T00:15:58.900Z,26.85
2023-03-16T00:18:29.136Z,25.97
2023-03-16T00:21:05.405Z,24.35
2023-03-16T00:23:35.901Z,26.70
2023-03-16T00:26:08.353Z,24.67
2023-03-16T00:28:36.880Z,28.50
2023-03-16T00:31:08.264Z,27.13
2023-03-16T00:33:35.694Z,23.20
2023-03-16T00:36:05.481Z,29.23
2023-03-16T00:38:36.492Z,28.60
2023-03-16T00:41:07.751Z,28.25
2023-03-16T00:43:46.674Z,24.98
2023-03-16T00:46:17.878Z,28.90
2023-03-16T00:48:47.426Z,27.42
2023-03-16T00:51:18.053Z,27.00
2023-03-16T00:53:46.781Z,26.38
2023-03-16T00:56:14.814Z,25.60
2023-03-16T00:58:43.448Z,26.67
2023-03-16T01:01:19.630Z,23.60
2023-03-16T01:03:47.492Z,23.83
2023-03-16T01:06:20.191Z,25.10
2023-03-16T01:08:47.424Z,25.77
2023-03-16T01:11:20.627Z,23.25
2023-03-16T01:13:50.079Z,21.55
2023-03-16T01:16:19.101Z,21.85
2023-03-16T01:18:47.590Z,24.02
2023-03-16T01:21:16.106Z,20.45
2023-03-16T01:23:44.356Z,23.93
2023-03-16T01:26:12.686Z,25.33
2023-03-16T01:28:39.934Z,19.73
2023-03-16T01:31:11.720Z,20.05
2023-03-16T01:33:39.369Z,23.80
2023-03-16T01:36:14.221Z,25.30
2023-03-16T01:38:42.299Z,22.63
2023-03-16T01:41:10.635Z,26.97
2023-03-16T01:43:40.923Z,23.93
2023-03-16T01:46:19.101Z,21.87
2023-03-16T01:49:19.987Z,24.37
2023-03-16T01:52:08.653Z,21.57
2023-03-16T01:54:45.822Z,21.27
2023-03-16T01:57:22.673Z,20.20
2023-03-16T01:59:54.491Z,19.53
2023-03-16T02:02:30.249Z,17.10
2023-03-16T02:05:09.825Z,18.10
2023-03-16T02:07:46.973Z,23.50
2023-03-16T02:10:18.391Z,21.37
2023-03-16T02:12:47.395Z,19.17
2023-03-16T02:15:15.328Z,22.97
2023-03-16T02:17:46.308Z,23.10
2023-03-16T02:20:19.168Z,21.77
2023-03-16T02:22:54.164Z,19.27
2023-03-16T02:25:30.224Z,20.03
2023-03-16T02:28:20.341Z,22.20
2023-03-16T02:30:48.771Z,22.00
2023-03-16T02:33:19.602Z,20.83
2023-03-16T02:35:47.010Z,17.23
2023-03-16T02:38:14.642Z,22.53
2023-03-16T02:40:43.987Z,21.80
2023-03-16T02:43:16.888Z,23.37
2023-03-16T02:45:51.398Z,28.73
2023-03-16T02:48:32.343Z,32.23
2023-03-16T02:51:00.001Z,25.70
2023-03-16T02:53:28.133Z,24.33
2023-03-16T02:55:55.523Z,22.23
2023-03-16T02:58:23.119Z,26.37
2023-03-16T03:00:50.623Z,24.07
2023-03-16T03:03:18.972Z,24.97
2023-03-16T03:05:46.406Z,28.97
2023-03-16T03:08:14.626Z,31.33
2023-03-16T03:10:41.917Z,30.73
2023-03-16T03:13:09.476Z,27.30
2023-03-16T03:15:36.768Z,23.93
2023-03-16T03:18:04.508Z,26.20
2023-03-16T03:20:31.894Z,24.70
2023-03-16T03:22:59.548Z,25.70
2023-03-16T03:25:26.874Z,27.63
2023-03-16T03:27:54.854Z,29.03
2023-03-16T03:30:24.929Z,24.60
2023-03-16T03:32:52.733Z,25.13
2023-03-16T03:35:21.516Z,30.70
2023-03-16T03:37:50.548Z,24.67
2023-03-16T03:40:20.199Z,26.87
2023-03-16T03:42:48.442Z,24.50
2023-03-16T03:45:16.588Z,25.07
2023-03-16T03:47:44.607Z,26.00
2023-03-16T03:50:14.015Z,24.43
2023-03-16T03:52:41.845Z,23.93
2023-03-16T03:55:10.817Z,23.00
2023-03-16T03:57:38.338Z,24.23
2023-03-16T04:00:09.858Z,24.40
2023-03-16T04:02:38.993Z,23.80
2023-03-16T04:05:07.903Z,23.87
2023-03-16T04:07:35.612Z,23.83
2023-03-16T04:10:03.114Z,23.70
2023-03-16T04:12:30.656Z,24.20
2023-03-16T04:14:58.015Z,26.00
2023-03-16T04:17:25.784Z,24.00
2023-03-16T04:19:53.064Z,23.97
2023-03-16T04:22:23.266Z,24.87
2023-03-16T04:24:52.330Z,24.73
2023-03-16T04:27:19.864Z,26.47
2023-03-16T04:29:47.175Z,24.03
2023-03-16T04:32:14.761Z,27.47
2023-03-16T04:34:43.915Z,26.07
2023-03-16T04:37:12.004Z,29.53
2023-03-16T04:39:39.411Z,27.43
2023-03-16T04:42:07.240Z,26.10
2023-03-16T04:44:34.467Z,30.67
2023-03-16T04:47:05.039Z,23.20
2023-03-16T04:49:32.288Z,31.10
2023-03-16T04:52:09.711Z,27.60
2023-03-16T04:54:37.004Z,23.57
2023-03-16T04:57:05.791Z,24.77
2023-03-16T04:59:33.152Z,27.60
2023-03-16T05:02:01.108Z,26.47
2023-03-16T05:04:28.554Z,23.57
2023-03-16T05:06:56.121Z,26.40
2023-03-16T05:09:23.367Z,29.10
2023-03-16T05:11:50.967Z,26.80
2023-03-16T05:14:18.276Z,26.10
2023-03-16T05:16:45.798Z,28.27
2023-03-16T05:19:13.082Z,26.97
2023-03-16T05:21:40.683Z,28.00
2023-03-16T05:24:08.627Z,31.30
2023-03-16T05:26:36.191Z,32.40
2023-03-16T05:29:03.737Z,28.50
2023-03-16T05:31:35.016Z,32.10
2023-03-16T05:34:02.513Z,27.77
2023-03-16T05:36:30.112Z,33.37
2023-03-16T05:38:58.365Z,40.93
2023-03-16T05:41:25.960Z,54.50
2023-03-16T05:43:53.279Z,46.60
2023-03-16T05:46:21.071Z,48.35
2023-03-16T05:48:48.383Z,66.73
2023-03-16T05:51:16.075Z,60.57
2023-03-16T05:53:46.662Z,51.97
2023-03-16T05:56:14.236Z,47.07
2023-03-16T05:58:42.337Z,41.97
2023-03-16T06:01:11.338Z,40.73
2023-03-16T06:03:38.863Z,31.60
2023-03-16T06:06:06.595Z,33.57
2023-03-16T06:08:33.829Z,34.83
2023-03-16T06:11:01.566Z,32.17
2023-03-16T06:13:28.790Z,32.93
2023-03-16T06:15:56.415Z,31.73
2023-03-16T06:18:23.702Z,33.43
2023-03-16T06:20:51.525Z,30.53
2023-03-16T06:23:20.411Z,31.93
2023-03-16T06:25:49.120Z,29.67
2023-03-16T06:28:16.973Z,30.17
2023-03-16T06:30:44.475Z,31.07
2023-03-16T06:33:11.799Z,32.90
2023-03-16T06:35:39.515Z,29.83
2023-03-16T06:38:06.801Z,31.67
2023-03-16T06:40:34.477Z,30.87
2023-03-16T06:43:02.208Z,31.53
2023-03-16T06:45:29.905Z,31.77
2023-03-16T06:47:57.248Z,31.43
2023-03-16T06:50:25.379Z,31.07
2023-03-16T06:52:52.751Z,28.70
2023-03-16T06:55:20.407Z,27.93
2023-03-16T06:57:47.734Z,28.67
2023-03-16T07:00:16.207Z,27.97
2023-03-16T07:02:43.960Z,29.30
2023-03-16T07:05:15.214Z,30.37
2023-03-16T07:07:43.734Z,29.70
2023-03-16T07:10:17.692Z,28.93
2023-03-16T07:12:45.708Z,27.63
2023-03-16T07:15:14.265Z,27.23
2023-03-16T07:17:42.723Z,27.33
2023-03-16T07:20:12.925Z,27.85
2023-03-16T07:22:41.921Z,25.42
2023-03-16T07:25:11.567Z,25.20
2023-03-16T07:27:39.037Z,25.70
2023-03-16T07:30:07.520Z,26.30
2023-03-16T07:32:34.899Z,26.63
2023-03-16T07:35:02.570Z,26.77
2023-03-16T07:37:29.875Z,25.58
2023-03-16T07:39:57.466Z,25.42
2023-03-16T07:42:24.771Z,22.58
2023-03-16T07:44:52.384Z,22.90
2023-03-16T07:47:19.853Z,22.83
2023-03-16T07:49:47.419Z,22.38
2023-03-16T07:52:14.698Z,19.60
2023-03-16T07:54:45.057Z,18.38
2023-03-16T07:57:12.333Z,21.40
2023-03-16T07:59:40.411Z,20.05
2023-03-16T08:02:16.254Z,21.45
2023-03-16T08:04:45.284Z,19.13
2023-03-16T08:07:15.047Z,18.52
2023-03-16T08:09:43.801Z,18.02
2023-03-16T08:12:11.964Z,16.63
2023-03-16T08:14:39.724Z,18.33
2023-03-16T08:17:07.656Z,17.95
2023-03-16T08:19:35.272Z,17.30
2023-03-16T08:22:03.802Z,19.25
2023-03-16T08:24:33.234Z,22.30
2023-03-16T08:27:01.179Z,25.15
2023-03-16T08:29:29.104Z,18.83
2023-03-16T08:31:57.645Z,15.07
2023-03-16T08:34:27.019Z,14.40
2023-03-16T08:36:55.450Z,14.70
2023-03-16T08:39:23.178Z,13.98
2023-03-16T08:41:51.148Z,14.27
2023-03-16T08:44:20.191Z,13.30
2023-03-16T08:46:47.616Z,14.60
2023-03-16T08:49:15.482Z,14.00
2023-03-16T08:51:44.763Z,12.88
2023-03-16T08:54:13.080Z,13.18
2023-03-16T08:56:40.448Z,10.85
2023-03-16T08:59:14.150Z,10.70
2023-03-16T09:01:50.999Z,12.32
2023-03-16T09:04:18.792Z,11.00
2023-03-16T09:06:55.812Z,10.25
2023-03-16T09:09:31.205Z,8.00
2023-03-16T09:11:59.104Z,7.95
2023-03-16T09:14:26.825Z,8.63
2023-03-16T09:16:54.389Z,6.90
2023-03-16T09:19:22.954Z,6.55
2023-03-16T09:21:50.400Z,7.32
2023-03-16T09:24:18.557Z,7.88
2023-03-16T09:26:45.928Z,7.38
2023-03-16T09:29:14.860Z,6.60
2023-03-16T09:31:43.456Z,6.38
2023-03-16T09:34:11.944Z,7.00
2023-03-16T09:36:39.515Z,8.93
2023-03-16T09:39:07.705Z,9.73
2023-03-16T09:42:10.306Z,10.38
2023-03-16T09:45:11.283Z,7.88
2023-03-16T09:47:41.945Z,8.13
2023-03-16T09:50:24.439Z,6.85
2023-03-16T09:53:27.142Z,5.80
2023-03-16T09:56:16.891Z,6.25
2023-03-16T09:58:44.345Z,5.30
2023-03-16T10:01:15.076Z,5.38
2023-03-16T10:03:59.114Z,4.97
2023-03-16T10:06:28.322Z,5.93
2023-03-16T10:09:20.484Z,15.95
2023-03-16T10:11:56.932Z,5.57
2023-03-16T10:14:51.191Z,4.90
2023-03-16T10:17:28.450Z,5.20
2023-03-16T10:20:23.703Z,4.80
2023-03-16T10:22:53.119Z,5.38
2023-03-16T10:25:33.163Z,5.65
2023-03-16T10:28:01.552Z,4.97
2023-03-16T10:30:37.553Z,4.57
2023-03-16T10:33:27.778Z,4.45
2023-03-16T10:36:24.365Z,4.30
2023-03-16T10:39:00.793Z,3.97
2023-03-16T10:41:38.414Z,3.28
2023-03-16T10:44:27.331Z,3.42
2023-03-16T10:47:08.407Z,3.25
2023-03-16T10:49:44.510Z,4.07
2023-03-16T10:52:20.581Z,3.90
2023-03-16T10:55:10.791Z,4.15
2023-03-16T10:57:43.692Z,3.70
2023-03-16T11:00:13.938Z,4.10
2023-03-16T11:02:42.657Z,4.55
2023-03-16T11:05:32.845Z,3.10
2023-03-16T11:08:22.299Z,3.17
2023-03-16T11:10:58.543Z,3.17
2023-03-16T11:13:35.957Z,3.35
2023-03-16T11:16:24.116Z,3.88
2023-03-16T11:18:58.948Z,2.65
2023-03-16T11:22:16.519Z,2.95
2023-03-16T11:24:52.865Z,2.58
2023-03-16T11:27:49.177Z,3.58
2023-03-16T11:30:35.385Z,2.83
2023-03-16T11:33:04.233Z,3.17
2023-03-16T11:36:01.146Z,2.65
2023-03-16T11:39:11.201Z,3.13
2023-03-16T11:42:39.526Z,2.20
2023-03-16T11:45:19.104Z,2.15
2023-03-16T11:48:25.101Z,2.50
2023-03-16T11:51:37.045Z,2.63
2023-03-16T11:54:28.408Z,4.93
2023-03-16T11:57:38.908Z,4.43
2023-03-16T12:00:15.059Z,3.63
2023-03-16T12:03:38.214Z,5.57
2023-03-16T12:06:24.490Z,4.10
2023-03-16T12:09:04.601Z,3.22
2023-03-16T12:11:42.445Z,4.43
2023-03-16T12:14:30.918Z,4.70
2023-03-16T12:17:21.201Z,3.80
2023-03-16T12:19:54.542Z,3.00
2023-03-16T12:22:41.461Z,2.42
2023-03-16T12:25:25.845Z,2.53
2023-03-16T12:27:57.092Z,2.10
2023-03-16T12:30:41.195Z,3.45
2023-03-16T12:33:46.544Z,3.00
2023-03-16T12:36:55.976Z,3.42
2023-03-16T12:39:51.634Z,3.85
2023-03-16T12:43:10.023Z,3.95
2023-03-16T12:45:49.754Z,3.17
2023-03-16T12:48:32.357Z,2.88
2023-03-16T12:51:05.166Z,2.50
2023-03-16T12:53:51.989Z,3.17
2023-03-16T12:56:53.991Z,2.92
2023-03-16T12:59:26.210Z,2.80
2023-03-16T13:01:59.870Z,2.60
2023-03-16T13:04:38.868Z,2.80
2023-03-16T13:07:19.832Z,2.90
2023-03-16T13:10:16.633Z,2.75
2023-03-16T13:12:46.314Z,2.85
2023-03-16T13:15:20.590Z,3.35
2023-03-16T13:18:09.998Z,3.50
2023-03-16T13:21:00.993Z,4.82
2023-03-16T13:24:26.012Z,4.75
2023-03-16T13:27:01.412Z,3.45
2023-03-16T13:29:32.740Z,2.95
2023-03-16T13:32:07.661Z,3.00
2023-03-16T13:34:58.844Z,2.75
2023-03-16T13:37:30.005Z,2.70
2023-03-16T13:40:01.886Z,2.95
2023-03-16T13:42:33.688Z,2.55
2023-03-16T13:45:15.629Z,3.17
2023-03-16T13:47:45.494Z,4.55
2023-03-16T13:50:16.109Z,4.65
2023-03-16T13:52:52.887Z,4.03
2023-03-16T13:55:34.788Z,3.00
2023-03-16T13:58:04.121Z,4.28
2023-03-16T14:00:37.327Z,4.20
2023-03-16T14:03:21.975Z,2.90
2023-03-16T14:05:49.681Z,2.22
2023-03-16T14:08:24.420Z,2.03
2023-03-16T14:10:59.809Z,2.40
2023-03-16T14:13:29.167Z,2.60
2023-03-16T14:16:18.371Z,2.72
2023-03-16T14:18:52.827Z,2.70
2023-03-16T14:21:26.280Z,3.08
2023-03-16T14:24:06.978Z,2.47
2023-03-16T14:26:48.461Z,2.60
2023-03-16T14:29:31.523Z,2.88
2023-03-16T14:32:03.397Z,2.50
2023-03-16T14:34:39.871Z,2.90
2023-03-16T14:37:12.333Z,2.53
2023-03-16T14:39:41.304Z,2.50
2023-03-16T14:42:29.672Z,2.70
2023-03-16T14:45:00.961Z,2.08
2023-03-16T14:47:42.461Z,2.03
2023-03-16T14:50:25.535Z,2.22
2023-03-16T14:52:57.392Z,2.95
2023-03-16T14:55:25.824Z,3.00
2023-03-16T14:57:53.402Z,3.30
2023-03-16T15:00:23.036Z,3.05
2023-03-16T15:03:15.390Z,2.97
2023-03-16T15:05:48.629Z,4.20
2023-03-16T15:08:33.747Z,3.03
2023-03-16T15:11:06.737Z,2.70
2023-03-16T15:13:35.211Z,1.98
2023-03-16T15:16:04.658Z,2.53
2023-03-16T15:18:33.925Z,2.10
2023-03-16T15:21:03.011Z,2.33
2023-03-16T15:23:31.363Z,2.00
2023-03-16T15:26:00.711Z,2.58
2023-03-16T15:28:28.722Z,2.80
2023-03-16T15:30:59.400Z,3.25
2023-03-16T15:33:27.606Z,3.28
2023-03-16T15:36:02.166Z,3.50
2023-03-16T15:38:39.853Z,2.80
2023-03-16T15:41:14.608Z,4.03
2023-03-16T15:43:42.060Z,4.15
2023-03-16T15:46:10.583Z,3.75
2023-03-16T15:48:38.704Z,3.45
2023-03-16T15:51:16.242Z,3.13
2023-03-16T15:54:05.014Z,2.75
2023-03-16T15:56:52.839Z,3.10
2023-03-16T15:59:22.310Z,2.83
2023-03-16T16:01:52.548Z,3.22
2023-03-16T16:04:25.028Z,2.92
2023-03-16T16:06:55.429Z,2.80
2023-03-16T16:09:23.481Z,3.05
2023-03-16T16:11:51.568Z,4.10
2023-03-16T16:14:26.606Z,3.75
2023-03-16T16:16:54.690Z,3.45
2023-03-16T16:19:22.115Z,2.95
2023-03-16T16:21:49.878Z,2.10
2023-03-16T16:24:18.580Z,2.55
2023-03-16T16:26:55.610Z,4.38
2023-03-16T16:29:32.181Z,5.65
2023-03-16T16:32:01.005Z,5.85
2023-03-16T16:34:28.741Z,5.22
2023-03-16T16:36:57.813Z,5.07
2023-03-16T16:39:25.523Z,5.05
2023-03-16T16:41:56.756Z,5.60
2023-03-16T16:44:33.833Z,5.20
2023-03-16T16:47:03.724Z,5.40
2023-03-16T16:49:31.583Z,5.90
2023-03-16T16:51:59.718Z,6.30
2023-03-16T16:54:32.166Z,6.68
2023-03-16T16:57:01.690Z,7.75
2023-03-16T16:59:37.011Z,6.75
2023-03-16T17:02:30.905Z,8.82
2023-03-16T17:04:58.773Z,8.35
2023-03-16T17:07:26.635Z,8.82
2023-03-16T17:09:54.284Z,7.13
2023-03-16T17:12:24.644Z,7.18
2023-03-16T17:14:52.286Z,8.55
2023-03-16T17:17:20.391Z,10.00
2023-03-16T17:19:48.578Z,10.35
2023-03-16T17:22:24.958Z,11.07
2023-03-16T17:24:54.110Z,15.07
2023-03-16T17:27:33.179Z,14.88
2023-03-16T17:30:00.812Z,16.17
2023-03-16T17:32:28.647Z,17.00
2023-03-16T17:34:56.404Z,16.20
2023-03-16T17:37:24.133Z,17.45
2023-03-16T17:39:52.737Z,14.88
2023-03-16T17:42:23.216Z,15.77
2023-03-16T17:44:53.310Z,19.50
2023-03-16T17:47:27.588Z,16.63
2023-03-16T17:49:57.156Z,14.45
2023-03-16T17:52:29.368Z,8.93
2023-03-16T17:54:57.359Z,8.10
2023-03-16T17:57:31.322Z,10.35
2023-03-16T18:00:01.921Z,11.07
2023-03-16T18:02:57.753Z,10.68
2023-03-16T18:05:31.279Z,10.02
2023-03-16T18:08:22.787Z,16.40
2023-03-16T18:11:01.122Z,18.25
2023-03-16T18:13:38.001Z,15.35
2023-03-16T18:16:07.797Z,15.73
2023-03-16T18:18:39.520Z,18.08
2023-03-16T18:21:07.261Z,17.45
2023-03-16T18:23:36.982Z,24.70
2023-03-16T18:26:06.390Z,21.50
2023-03-16T18:28:35.241Z,19.40
2023-03-16T18:31:05.275Z,15.52
2023-03-16T18:33:38.396Z,12.15
2023-03-16T18:36:18.328Z,14.80
2023-03-16T18:38:50.546Z,12.43
2023-03-16T18:41:25.292Z,15.35
2023-03-16T18:43:58.171Z,15.07
2023-03-16T18:46:35.583Z,16.33
2023-03-16T18:49:34.179Z,18.23
2023-03-16T18:52:01.861Z,17.60
2023-03-16T18:54:36.851Z,16.73
2023-03-16T18:57:14.463Z,15.57
2023-03-16T18:59:42.391Z,18.15
2023-03-16T19:02:39.773Z,16.33
2023-03-16T19:05:31.828Z,15.00
2023-03-16T19:07:59.937Z,17.73
2023-03-16T19:10:56.483Z,14.57
2023-03-16T19:13:26.368Z,12.13
2023-03-16T19:15:57.883Z,11.57
2023-03-16T19:18:26.348Z,12.35
2023-03-16T19:20:56.593Z,11.70
2023-03-16T19:23:31.063Z,13.30
2023-03-16T19:25:59.271Z,12.90
2023-03-16T19:28:34.858Z,15.43
2023-03-16T19:31:19.380Z,16.13
2023-03-16T19:33:48.402Z,17.33
2023-03-16T19:36:26.585Z,17.27
2023-03-16T19:38:54.483Z,22.50
2023-03-16T19:41:35.585Z,18.45
2023-03-16T19:44:26.407Z,22.63
2023-03-16T19:46:56.277Z,22.92
2023-03-16T19:49:27.214Z,19.80
2023-03-16T19:51:56.823Z,18.90
2023-03-16T19:54:34.005Z,31.13
2023-03-16T19:57:12.513Z,38.35
2023-03-16T19:59:41.924Z,33.33
2023-03-16T20:02:35.875Z,24.52
2023-03-16T20:05:03.953Z,23.00
2023-03-16T20:07:37.942Z,23.75
2023-03-16T20:10:12.323Z,21.80
2023-03-16T20:12:42.664Z,18.10
2023-03-16T20:15:21.068Z,18.63
2023-03-16T20:17:51.199Z,16.35
2023-03-16T20:20:29.735Z,16.45
2023-03-16T20:22:59.758Z,22.92
2023-03-16T20:25:32.748Z,23.27
2023-03-16T20:28:03.998Z,19.35
2023-03-16T20:30:32.270Z,23.20
2023-03-16T20:33:00.222Z,24.83
2023-03-16T20:35:32.527Z,27.02
2023-03-16T20:38:00.524Z,30.05
2023-03-16T20:40:28.418Z,29.77
2023-03-16T20:42:56.536Z,28.30
2023-03-16T20:45:30.614Z,28.08
2023-03-16T20:47:58.529Z,28.23
2023-03-16T20:50:31.016Z,28.42
2023-03-16T20:52:58.651Z,27.85
2023-03-16T20:55:29.441Z,28.48
2023-03-16T20:57:57.703Z,27.20
2023-03-16T21:00:33.322Z,25.83
2023-03-16T21:03:05.073Z,26.75
2023-03-16T21:05:32.545Z,23.77
2023-03-16T21:08:00.130Z,24.40
2023-03-16T21:10:28.442Z,21.85
2023-03-16T21:12:57.823Z,17.45
2023-03-16T21:15:30.589Z,18.17
2023-03-16T21:18:07.418Z,16.63
2023-03-16T21:20:36.775Z,16.92
2023-03-16T21:23:04.571Z,14.35
2023-03-16T21:25:38.613Z,13.30
2023-03-16T21:28:06.248Z,13.45
2023-03-16T21:30:39.883Z,18.73
2023-03-16T21:33:35.541Z,24.02
2023-03-16T21:36:07.236Z,28.40
2023-03-16T21:38:35.137Z,31.13
2023-03-16T21:41:02.387Z,32.78
2023-03-16T21:43:31.565Z,32.92
2023-03-16T21:45:59.701Z,37.20
2023-03-16T21:48:53.056Z,38.00
2023-03-16T21:51:27.972Z,33.55
2023-03-16T21:53:56.020Z,35.13
2023-03-16T21:56:26.190Z,34.90
2023-03-16T21:58:54.953Z,34.22
2023-03-16T22:01:30.444Z,31.50
2023-03-16T22:04:09.046Z,34.78
2023-03-16T22:06:36.798Z,36.00
2023-03-16T22:09:04.504Z,37.33
2023-03-16T22:11:32.207Z,38.00
2023-03-16T22:14:00.087Z,39.35
2023-03-16T22:16:34.983Z,41.90
2023-03-16T22:19:04.312Z,42.75
2023-03-16T22:21:41.285Z,42.00
2023-03-16T22:24:30.068Z,41.85
2023-03-16T22:26:58.129Z,40.47
2023-03-16T22:29:36.726Z,39.92
2023-03-16T22:32:18.341Z,37.07
2023-03-16T22:34:48.448Z,37.92
2023-03-16T22:37:24.223Z,36.35
2023-03-16T22:39:53.130Z,35.97
2023-03-16T22:42:35.882Z,35.22
2023-03-16T22:45:17.080Z,34.05
2023-03-16T22:47:44.887Z,36.10
2023-03-16T22:50:18.004Z,33.40
2023-03-16T22:52:50.167Z,36.65
2023-03-16T22:55:29.755Z,38.83
2023-03-16T22:58:30.339Z,36.03
2023-03-16T23:01:02.490Z,36.77
2023-03-16T23:03:30.302Z,36.20
2023-03-16T23:05:57.948Z,36.95
2023-03-16T23:08:26.778Z,36.80
2023-03-16T23:10:56.069Z,34.05
2023-03-16T23:13:25.609Z,28.35
2023-03-16T23:15:53.770Z,33.78
2023-03-16T23:18:25.458Z,36.57
2023-03-16T23:20:53.314Z,38.58
2023-03-16T23:23:21.144Z,37.70
2023-03-16T23:25:48.871Z,41.10
2023-03-16T23:28:23.119Z,42.13
2023-03-16T23:30:51.157Z,38.42
2023-03-16T23:33:18.507Z,37.03
2023-03-16T23:35:47.072Z,39.30
2023-03-16T23:38:14.444Z,37.05
2023-03-16T23:40:42.303Z,38.87
2023-03-16T23:43:09.810Z,38.60
2023-03-16T23:45:39.056Z,37.73
2023-03-16T23:48:13.966Z,42.53
2023-03-16T23:50:42.755Z,40.08
2023-03-16T23:53:17.622Z,36.65
2023-03-16T23:55:47.002Z,37.38
2023-03-16T23:58:16.322Z,37.67
